Time,TemperatureF,DewpointF,PressureIn,WindDirection,WindDirectionDegrees,WindSpeedMPH,WindSpeedGustMPH,Humidity,HourlyPrecipIn,Conditions,Clouds,dailyrainin,SoftwareType,DateUTC
2013-02-24 00:03:00,43.8,41.0,29.96,WSW,249,0.0,0.0,89,0.00,,,0.00,weatherlink.com 1.10,2013-02-24 06:03:00,
2013-02-24 00:18:00,43.3,40.0,29.96,WSW,249,0.0,0.0,89,0.00,,,0.00,weatherlink.com 1.10,2013-02-24 06:18:00,
2013-02-24 00:33:00,42.9,40.0,29.96,WSW,249,0.0,0.0,89,0.00,,,0.00,weatherlink.com 1.10,2013-02-24 06:33:00,
2013-02-24 00:48:00,42.4,40.0,29.96,WSW,249,0.0,0.0,90,0.00,,,0.00,weatherlink.com 1.10,2013-02-24 06:48:00,
2013-02-24 01:03:00,42.0,39.0,29.95,WSW,249,0.0,0.0,90,0.00,,,0.00,weatherlink.com 1.10,2013-02-24 07:03:00,
2013-02-24 01:18:00,41.7,39.0,29.95,WSW,249,0.0,0.0,90,0.00,,,0.00,weatherlink.com 1.10,2013-02-24 07:18:00,
2013-02-24 01:33:00,42.3,40.0,29.94,WSW,249,0.0,0.0,90,0.00,,,0.00,weatherlink.com 1.10,2013-02-24 07:33:00,
2013-02-24 01:48:00,44.1,41.0,29.95,WSW,249,0.0,1.0,90,0.00,,,0.00,weatherlink.com 1.10,2013-02-24 07:48:00,
2013-02-24 02:03:00,47.0,44.0,29.95,SSW,209,0.0,2.0,88,0.00,,,0.00,weatherlink.com 1.10,2013-02-24 08:03:00,
2013-02-24 02:18:00,46.9,42.0,29.94,SE,126,0.0,4.0,84,0.00,,,0.00,weatherlink.com 1.10,2013-02-24 08:18:00,
2013-02-24 02:33:00,43.2,39.0,29.94,WSW,239,0.0,3.0,84,0.00,,,0.00,weatherlink.com 1.10,2013-02-24 08:33:00,
2013-02-24 02:48:00,42.8,40.0,29.94,WSW,239,0.0,1.0,88,0.00,,,0.00,weatherlink.com 1.10,2013-02-24 08:48:00,
2013-02-24 03:03:00,42.8,40.0,29.94,WSW,239,0.0,0.0,88,0.00,,,0.00,weatherlink.com 1.10,2013-02-24 09:03:00,
2013-02-24 03:18:00,42.5,39.0,29.94,WSW,239,0.0,0.0,88,0.00,,,0.00,weatherlink.com 1.10,2013-02-24 09:18:00,
2013-02-24 03:33:00,41.9,39.0,29.94,WSW,239,0.0,0.0,89,0.00,,,0.00,weatherlink.com 1.10,2013-02-24 09:33:00,
2013-02-24 03:49:00,41.3,38.0,29.94,WSW,239,0.0,0.0,89,0.00,,,0.00,weatherlink.com 1.10,2013-02-24 09:49:00,
2013-02-24 04:04:00,40.9,38.0,29.93,WSW,239,0.0,0.0,90,0.00,,,0.00,weatherlink.com 1.10,2013-02-24 10:04:00,
2013-02-24 04:19:00,40.1,38.0,29.93,WSW,239,0.0,1.0,90,0.00,,,0.00,weatherlink.com 1.10,2013-02-24 10:19:00,
2013-02-24 04:34:00,39.8,37.0,29.93,WSW,239,0.0,0.0,90,0.00,,,0.00,weatherlink.com 1.10,2013-02-24 10:34:00,
2013-02-24 04:49:00,39.6,37.0,29.94,WSW,239,0.0,0.0,90,0.00,,,0.00,weatherlink.com 1.10,2013-02-24 10:49:00,
2013-02-24 05:04:00,39.3,37.0,29.93,WSW,239,0.0,0.0,90,0.00,,,0.00,weatherlink.com 1.10,2013-02-24 11:04:00,
2013-02-24 05:19:00,38.9,36.0,29.93,WSW,239,0.0,0.0,90,0.00,,,0.00,weatherlink.com 1.10,2013-02-24 11:19:00,
2013-02-24 05:34:00,38.5,36.0,29.93,WSW,239,0.0,1.0,90,0.00,,,0.00,weatherlink.com 1.10,2013-02-24 11:34:00,
2013-02-24 05:49:00,37.7,35.0,29.93,WSW,239,0.0,0.0,91,0.00,,,0.00,weatherlink.com 1.10,2013-02-24 11:49:00,
2013-02-24 06:04:00,37.4,35.0,29.93,WSW,240,0.0,2.0,91,0.00,,,0.00,weatherlink.com 1.10,2013-02-24 12:04:00,
2013-02-24 06:19:00,37.8,36.0,29.93,WSW,240,0.0,1.0,91,0.00,,,0.00,weatherlink.com 1.10,2013-02-24 12:19:00,
2013-02-24 06:34:00,37.9,36.0,29.95,WSW,240,0.0,0.0,91,0.00,,,0.00,weatherlink.com 1.10,2013-02-24 12:34:00,
2013-02-24 06:49:00,38.0,36.0,29.96,WSW,240,0.0,0.0,91,0.00,,,0.00,weatherlink.com 1.10,2013-02-24 12:49:00,
2013-02-24 07:04:00,37.9,36.0,29.96,WSW,239,0.0,0.0,91,0.00,,,0.00,weatherlink.com 1.10,2013-02-24 13:04:00,
2013-02-24 07:19:00,37.7,35.0,29.96,WSW,240,0.0,1.0,91,0.00,,,0.00,weatherlink.com 1.10,2013-02-24 13:19:00,
2013-02-24 07:34:00,37.8,36.0,29.97,WSW,239,0.0,2.0,91,0.00,,,0.00,weatherlink.com 1.10,2013-02-24 13:34:00,
2013-02-24 07:49:00,38.6,36.0,29.97,SSW,196,0.0,2.0,91,0.00,,,0.00,weatherlink.com 1.10,2013-02-24 13:49:00,
2013-02-24 08:04:00,40.2,38.0,29.97,SSW,197,0.0,2.0,91,0.00,,,0.00,weatherlink.com 1.10,2013-02-24 14:04:00,
2013-02-24 08:19:00,42.8,40.0,29.98,SSW,207,0.0,3.0,91,0.00,,,0.00,weatherlink.com 1.10,2013-02-24 14:19:00,
2013-02-24 08:34:00,45.5,43.0,29.98,SSE,165,0.0,5.0,90,0.00,,,0.00,weatherlink.com 1.10,2013-02-24 14:34:00,
2013-02-24 08:49:00,49.9,44.0,29.98,SSE,150,0.0,7.0,79,0.00,,,0.00,weatherlink.com 1.10,2013-02-24 14:49:00,
2013-02-24 09:04:00,52.0,44.0,29.98,SSE,156,2.0,4.0,73,0.00,,,0.00,weatherlink.com 1.10,2013-02-24 15:04:00,
2013-02-24 09:19:00,52.6,44.0,29.97,SE,136,0.0,6.0,72,0.00,,,0.00,weatherlink.com 1.10,2013-02-24 15:19:00,
2013-02-24 09:34:00,54.5,44.0,29.97,SSE,165,1.0,6.0,69,0.00,,,0.00,weatherlink.com 1.10,2013-02-24 15:34:00,
2013-02-24 09:49:00,56.2,45.0,29.97,SE,145,0.0,7.0,66,0.00,,,0.00,weatherlink.com 1.10,2013-02-24 15:49:00,
2013-02-24 10:04:00,57.9,46.0,29.97,SSE,151,2.0,5.0,64,0.00,,,0.00,weatherlink.com 1.10,2013-02-24 16:04:00,
2013-02-24 10:19:00,59.1,46.0,29.97,SE,128,1.0,7.0,63,0.00,,,0.00,weatherlink.com 1.10,2013-02-24 16:19:00,
2013-02-24 10:34:00,60.3,47.0,29.95,ESE,103,2.0,3.0,63,0.00,,,0.00,weatherlink.com 1.10,2013-02-24 16:34:00,
2013-02-24 10:49:00,62.1,46.0,29.95,SSW,197,4.0,5.0,57,0.00,,,0.00,weatherlink.com 1.10,2013-02-24 16:49:00,
2013-02-24 11:05:00,63.2,47.0,29.95,SSE,161,2.0,5.0,56,0.00,,,0.00,weatherlink.com 1.10,2013-02-24 17:05:00,
2013-02-24 11:20:00,63.5,45.0,29.94,ESE,111,0.0,7.0,52,0.00,,,0.00,weatherlink.com 1.10,2013-02-24 17:20:00,
2013-02-24 11:35:00,63.6,46.0,29.93,SSE,161,1.0,7.0,53,0.00,,,0.00,weatherlink.com 1.10,2013-02-24 17:35:00,
2013-02-24 11:50:00,64.9,46.0,29.93,South,172,2.0,5.0,50,0.00,,,0.00,weatherlink.com 1.10,2013-02-24 17:50:00,
2013-02-24 12:05:00,64.8,45.0,29.92,SSE,153,2.0,6.0,49,0.00,,,0.00,weatherlink.com 1.10,2013-02-24 18:05:00,
2013-02-24 12:20:00,65.7,46.0,29.91,SSE,166,6.0,7.0,49,0.00,,,0.00,weatherlink.com 1.10,2013-02-24 18:20:00,
2013-02-24 12:35:00,65.9,47.0,29.91,East,101,0.0,8.0,50,0.00,,,0.00,weatherlink.com 1.10,2013-02-24 18:35:00,
2013-02-24 12:50:00,66.7,46.0,29.90,ESE,103,0.0,6.0,47,0.00,,,0.00,weatherlink.com 1.10,2013-02-24 18:50:00,
2013-02-24 13:05:00,66.3,45.0,29.88,East,100,2.0,8.0,46,0.00,,,0.00,weatherlink.com 1.10,2013-02-24 19:05:00,
2013-02-24 13:20:00,66.2,45.0,29.86,SE,144,0.0,4.0,46,0.00,,,0.00,weatherlink.com 1.10,2013-02-24 19:20:00,
2013-02-24 13:35:00,67.8,46.0,29.86,South,183,0.0,6.0,45,0.00,,,0.00,weatherlink.com 1.10,2013-02-24 19:35:00,
2013-02-24 13:50:00,68.8,45.0,29.85,East,91,1.0,3.0,43,0.00,,,0.00,weatherlink.com 1.10,2013-02-24 19:50:00,
2013-02-24 14:05:00,68.9,46.0,29.84,South,174,0.0,5.0,44,0.00,,,0.00,weatherlink.com 1.10,2013-02-24 20:05:00,
2013-02-24 14:20:00,69.2,47.0,29.83,SE,140,0.0,5.0,45,0.00,,,0.00,weatherlink.com 1.10,2013-02-24 20:20:00,
2013-02-24 14:35:00,70.2,45.0,29.83,WSW,243,0.0,4.0,40,0.00,,,0.00,weatherlink.com 1.10,2013-02-24 20:35:00,
2013-02-24 14:50:00,69.8,45.0,29.83,SSE,157,3.0,6.0,41,0.00,,,0.00,weatherlink.com 1.10,2013-02-24 20:50:00,
2013-02-24 15:05:00,69.4,45.0,29.82,SSE,152,2.0,5.0,41,0.00,,,0.00,weatherlink.com 1.10,2013-02-24 21:05:00,
2013-02-24 15:20:00,69.7,45.0,29.82,East,97,3.0,5.0,42,0.00,,,0.00,weatherlink.com 1.10,2013-02-24 21:20:00,
2013-02-24 15:35:00,69.6,46.0,29.80,ESE,115,0.0,3.0,43,0.00,,,0.00,weatherlink.com 1.10,2013-02-24 21:35:00,
2013-02-24 15:50:00,69.2,46.0,29.79,SE,130,0.0,5.0,43,0.00,,,0.00,weatherlink.com 1.10,2013-02-24 21:50:00,
2013-02-24 16:05:00,69.6,46.0,29.79,SSE,159,0.0,4.0,43,0.00,,,0.00,weatherlink.com 1.10,2013-02-24 22:05:00,
2013-02-24 16:20:00,69.9,46.0,29.78,SSE,151,0.0,5.0,43,0.00,,,0.00,weatherlink.com 1.10,2013-02-24 22:20:00,
2013-02-24 16:35:00,68.5,46.0,29.78,SSE,153,3.0,4.0,45,0.00,,,0.00,weatherlink.com 1.10,2013-02-24 22:35:00,
2013-02-24 16:50:00,67.6,47.0,29.78,SSE,150,0.0,2.0,47,0.00,,,0.00,weatherlink.com 1.10,2013-02-24 22:50:00,
2013-02-24 17:05:00,66.2,47.0,29.78,SSE,153,0.0,2.0,51,0.00,,,0.00,weatherlink.com 1.10,2013-02-24 23:05:00,
2013-02-24 17:20:00,65.9,47.0,29.77,SSE,157,0.0,1.0,51,0.00,,,0.00,weatherlink.com 1.10,2013-02-24 23:20:00,
2013-02-24 17:35:00,65.1,47.0,29.77,SSE,147,0.0,3.0,52,0.00,,,0.00,weatherlink.com 1.10,2013-02-24 23:35:00,
2013-02-24 17:50:00,64.4,47.0,29.77,SSE,147,0.0,1.0,54,0.00,,,0.00,weatherlink.com 1.10,2013-02-24 23:50:00,
2013-02-24 18:05:00,63.7,48.0,29.78,SSE,147,0.0,0.0,56,0.00,,,0.00,weatherlink.com 1.10,2013-02-25 00:05:00,
2013-02-24 18:20:00,63.2,47.0,29.77,SSE,147,0.0,0.0,56,0.00,,,0.00,weatherlink.com 1.10,2013-02-25 00:20:00,
2013-02-24 18:35:00,62.5,47.0,29.78,SSE,147,0.0,0.0,58,0.00,,,0.00,weatherlink.com 1.10,2013-02-25 00:35:00,
2013-02-24 18:50:00,61.6,48.0,29.77,SSE,147,0.0,0.0,61,0.00,,,0.00,weatherlink.com 1.10,2013-02-25 00:50:00,
2013-02-24 19:05:00,59.7,49.0,29.77,SSE,147,0.0,0.0,69,0.00,,,0.00,weatherlink.com 1.10,2013-02-25 01:05:00,
2013-02-24 19:20:00,58.9,50.0,29.77,SSE,147,0.0,0.0,72,0.00,,,0.00,weatherlink.com 1.10,2013-02-25 01:20:00,
2013-02-24 19:35:00,58.2,48.0,29.77,SSE,147,0.0,0.0,70,0.00,,,0.00,weatherlink.com 1.10,2013-02-25 01:35:00,
2013-02-24 19:50:00,57.5,49.0,29.76,SSE,147,0.0,0.0,74,0.00,,,0.00,weatherlink.com 1.10,2013-02-25 01:50:00,
2013-02-24 20:05:00,55.8,49.0,29.77,SSE,147,0.0,0.0,77,0.00,,,0.00,weatherlink.com 1.10,2013-02-25 02:05:00,
2013-02-24 20:20:00,55.2,49.0,29.77,SSE,147,0.0,0.0,80,0.00,,,0.00,weatherlink.com 1.10,2013-02-25 02:20:00,
2013-02-24 20:35:00,54.6,49.0,29.77,SSE,147,0.0,1.0,81,0.00,,,0.00,weatherlink.com 1.10,2013-02-25 02:35:00,
2013-02-24 20:50:00,54.2,49.0,29.77,SSE,147,0.0,1.0,81,0.00,,,0.00,weatherlink.com 1.10,2013-02-25 02:50:00,
2013-02-24 21:05:00,54.3,49.0,29.75,SSE,147,0.0,0.0,82,0.00,,,0.00,weatherlink.com 1.10,2013-02-25 03:05:00,
2013-02-24 21:21:00,54.7,48.0,29.75,SSE,147,0.0,0.0,79,0.00,,,0.00,weatherlink.com 1.10,2013-02-25 03:21:00,
2013-02-24 21:36:00,55.7,49.0,29.75,SSE,147,0.0,0.0,79,0.00,,,0.00,weatherlink.com 1.10,2013-02-25 03:36:00,
2013-02-24 21:51:00,56.3,49.0,29.75,SSE,147,0.0,0.0,77,0.00,,,0.00,weatherlink.com 1.10,2013-02-25 03:51:00,
2013-02-24 22:06:00,56.6,48.0,29.75,SSE,147,0.0,0.0,74,0.00,,,0.00,weatherlink.com 1.10,2013-02-25 04:06:00,
2013-02-24 22:21:00,56.7,50.0,29.74,SSE,147,0.0,0.0,77,0.00,,,0.00,weatherlink.com 1.10,2013-02-25 04:21:00,
2013-02-24 22:36:00,57.2,49.0,29.74,SSE,147,0.0,0.0,73,0.00,,,0.00,weatherlink.com 1.10,2013-02-25 04:36:00,
2013-02-24 22:51:00,57.5,49.0,29.74,SE,134,0.0,0.0,74,0.00,,,0.00,weatherlink.com 1.10,2013-02-25 04:51:00,
2013-02-24 23:06:00,58.1,49.0,29.74,SE,134,0.0,0.0,71,0.00,,,0.00,weatherlink.com 1.10,2013-02-25 05:06:00,
2013-02-24 23:21:00,59.3,48.0,29.71,SE,138,2.0,3.0,67,0.00,,,0.00,weatherlink.com 1.10,2013-02-25 05:21:00,
2013-02-24 23:36:00,59.5,47.0,29.71,SE,141,0.0,2.0,64,0.00,,,0.00,weatherlink.com 1.10,2013-02-25 05:36:00,
2013-02-24 23:51:00,59.5,48.0,29.70,SE,130,0.0,1.0,65,0.00,,,0.00,weatherlink.com 1.10,2013-02-25 05:51:00,